createdAt,value
2023-02-02T00:00:29.914Z,98572.16
2023-02-02T00:02:57.105Z,98562.03
2023-02-02T00:05:26.958Z,98564.56
2023-02-02T00:07:54.035Z,98560.41
2023-02-02T00:10:20.979Z,98559.97
2023-02-02T00:12:49.290Z,98564.91
2023-02-02T00:15:16.464Z,98557.59
2023-02-02T00:17:43.406Z,98546.50
2023-02-02T00:20:11.397Z,98551.25
2023-02-02T00:22:38.344Z,98557.13
2023-02-02T00:25:05.928Z,98541.75
2023-02-02T00:27:32.855Z,98545.88
2023-02-02T00:30:01.239Z,98553.94
2023-02-02T00:32:28.150Z,98538.72
2023-02-02T00:34:55.047Z,98547.75
2023-02-02T00:37:22.005Z,98545.72
2023-02-02T00:39:48.914Z,98545.56
2023-02-02T00:42:15.841Z,98549.69
2023-02-02T00:45:01.329Z,98554.75
2023-02-02T00:47:29.677Z,98552.22
2023-02-02T00:49:56.608Z,98554.75
2023-02-02T00:52:23.591Z,98554.09
2023-02-02T00:54:50.547Z,98564.25
2023-02-02T00:57:17.459Z,98565.69
2023-02-02T00:59:44.366Z,98560.94
2023-02-02T01:02:12.344Z,98568.84
2023-02-02T01:04:41.079Z,98577.75
2023-02-02T01:07:08.518Z,98566.16
2023-02-02T01:09:35.431Z,98567.28
2023-02-02T01:12:03.126Z,98560.13
2023-02-02T01:14:31.046Z,98564.25
2023-02-02T01:16:57.950Z,98561.22
2023-02-02T01:19:26.273Z,98554.75
2023-02-02T01:21:54.558Z,98549.31
2023-02-02T01:24:24.045Z,98557.72
2023-02-02T01:26:51.004Z,98553.47
2023-02-02T01:29:20.392Z,98552.19
2023-02-02T01:31:48.210Z,98550.25
2023-02-02T01:34:15.254Z,98548.69
2023-02-02T01:36:42.173Z,98548.69
2023-02-02T01:39:10.647Z,98549.00
2023-02-02T01:41:37.703Z,98552.19
2023-02-02T01:44:06.257Z,98554.56
2023-02-02T01:46:34.918Z,98546.59
2023-02-02T01:49:07.678Z,98552.97
2023-02-02T01:51:40.753Z,98553.13
2023-02-02T01:54:14.092Z,98540.09
2023-02-02T01:56:47.192Z,98545.53
2023-02-02T01:59:16.328Z,98534.72
2023-02-02T02:01:45.322Z,98538.56
2023-02-02T02:04:12.378Z,98544.09
2023-02-02T02:06:39.721Z,98548.72
2023-02-02T02:09:07.616Z,98551.41
2023-02-02T02:11:36.632Z,98559.97
2023-02-02T02:14:24.548Z,98560.13
2023-02-02T02:17:15.624Z,98566.81
2023-02-02T02:20:52.444Z,98561.56
2023-02-02T02:24:13.342Z,98564.72
2023-02-02T02:27:03.014Z,98550.31
2023-02-02T02:30:01.185Z,98556.63
2023-02-02T02:32:39.374Z,98572.81
2023-02-02T02:35:13.884Z,98558.38
2023-02-02T02:37:48.882Z,98566.13
2023-02-02T02:40:23.199Z,98562.84
2023-02-02T02:42:54.182Z,98568.38
2023-02-02T02:45:23.459Z,98587.25
2023-02-02T02:47:52.963Z,98572.19
2023-02-02T02:50:21.359Z,98568.84
2023-02-02T02:52:49.945Z,98569.66
2023-02-02T02:55:17.467Z,98560.75
2023-02-02T02:58:01.807Z,98572.81
2023-02-02T03:00:54.513Z,98571.22
2023-02-02T03:03:33.713Z,98571.22
2023-02-02T03:06:08.307Z,98569.97
2023-02-02T03:08:40.713Z,98564.91
2023-02-02T03:11:11.069Z,98561.25
2023-02-02T03:13:39.596Z,98576.78
2023-02-02T03:16:07.032Z,98580.44
2023-02-02T03:18:35.547Z,98583.13
2023-02-02T03:21:02.858Z,98588.03
2023-02-02T03:23:29.927Z,98585.03
2023-02-02T03:25:56.882Z,98577.59
2023-02-02T03:28:25.538Z,98582.66
2023-02-02T03:30:55.026Z,98580.28
2023-02-02T03:33:22.343Z,98580.28
2023-02-02T03:35:50.779Z,98587.25
2023-02-02T03:38:17.765Z,98589.63
2023-02-02T03:40:44.759Z,98595.03
2023-02-02T03:43:20.590Z,98597.56
2023-02-02T03:45:55.813Z,98588.97
2023-02-02T03:48:23.112Z,98595.31
2023-02-02T03:50:51.507Z,98589.00
2023-02-02T03:53:21.631Z,98592.47
2023-02-02T03:55:49.092Z,98589.47
2023-02-02T03:58:16.002Z,98584.22
2023-02-02T04:00:43.146Z,98579.16
2023-02-02T04:03:10.081Z,98576.63
2023-02-02T04:05:36.995Z,98581.84
2023-02-02T04:08:05.654Z,98579.47
2023-02-02T04:10:32.595Z,98584.84
2023-02-02T04:12:59.499Z,98592.66
2023-02-02T04:15:26.781Z,98597.38
2023-02-02T04:17:53.833Z,98592.31
2023-02-02T04:20:20.777Z,98602.28
2023-02-02T04:22:47.754Z,98597.22
2023-02-02T04:25:16.489Z,98602.94
2023-02-02T04:27:43.454Z,98593.41
2023-02-02T04:30:11.654Z,98601.81
2023-02-02T04:32:39.306Z,98598.66
2023-02-02T04:35:07.156Z,98603.25
2023-02-02T04:37:34.136Z,98594.38
2023-02-02T04:40:01.094Z,98607.06
2023-02-02T04:42:32.202Z,98610.41
2023-02-02T04:44:59.404Z,98605.63
2023-02-02T04:47:26.307Z,98619.41
2023-02-02T04:49:53.192Z,98617.81
2023-02-02T04:52:20.134Z,98622.09
2023-02-02T04:54:47.072Z,98622.09
2023-02-02T04:57:13.965Z,98616.25
2023-02-02T04:59:42.594Z,98622.88
2023-02-02T05:02:09.603Z,98623.53
2023-02-02T05:04:36.606Z,98626.69
2023-02-02T05:07:03.541Z,98627.16
2023-02-02T05:09:30.503Z,98629.06
2023-02-02T05:11:57.395Z,98627.50
2023-02-02T05:14:24.345Z,98632.56
2023-02-02T05:16:53.773Z,98634.94
2023-02-02T05:19:20.750Z,98638.09
2023-02-02T05:21:51.160Z,98631.16
2023-02-02T05:24:18.472Z,98639.53
2023-02-02T05:26:45.591Z,98637.81
2023-02-02T05:29:12.657Z,98640.19
2023-02-02T05:31:39.605Z,98635.75
2023-02-02T05:34:11.422Z,98648.91
2023-02-02T05:36:38.475Z,98649.41
2023-02-02T05:39:06.794Z,98644.00
2023-02-02T05:41:33.817Z,98647.97
2023-02-02T05:44:01.139Z,98642.59
2023-02-02T05:46:28.086Z,98641.94
2023-02-02T05:48:55.080Z,98636.56
2023-02-02T05:51:26.847Z,98646.25
2023-02-02T05:53:53.847Z,98643.88
2023-02-02T05:56:20.780Z,98645.00
2023-02-02T05:58:49.851Z,98644.28
2023-02-02T06:01:18.562Z,98640.47
2023-02-02T06:03:45.663Z,98644.03
2023-02-02T06:06:13.179Z,98641.66
2023-02-02T06:08:41.467Z,98637.91
2023-02-02T06:11:12.587Z,98641.44
2023-02-02T06:13:44.257Z,98644.34
2023-02-02T06:16:12.680Z,98634.06
2023-02-02T06:18:39.705Z,98640.78
2023-02-02T06:21:10.333Z,98639.25
2023-02-02T06:23:38.345Z,98628.38
2023-02-02T06:26:08.278Z,98635.75
2023-02-02T06:28:35.183Z,98652.22
2023-02-02T06:31:05.961Z,98648.00
2023-02-02T06:33:33.489Z,98643.97
2023-02-02T06:36:01.193Z,98645.00
2023-02-02T06:38:28.311Z,98638.31
2023-02-02T06:40:55.256Z,98639.34
2023-02-02T06:43:23.935Z,98649.59
2023-02-02T06:45:50.861Z,98637.81
2023-02-02T06:48:17.833Z,98646.41
2023-02-02T06:50:47.776Z,98635.06
2023-02-02T06:53:14.747Z,98651.06
2023-02-02T06:55:41.683Z,98645.81
2023-02-02T06:58:08.958Z,98653.34
2023-02-02T07:00:38.324Z,98647.22
2023-02-02T07:03:07.232Z,98648.63
2023-02-02T07:05:34.169Z,98646.34
2023-02-02T07:08:01.075Z,98645.69
2023-02-02T07:11:14.237Z,98642.44
2023-02-02T07:13:14.966Z,98648.41
2023-02-02T07:15:43.360Z,98650.97
2023-02-02T07:18:10.479Z,98641.63
2023-02-02T07:20:37.480Z,98643.06
2023-02-02T07:23:04.814Z,98633.53
2023-02-02T07:25:31.901Z,98638.38
2023-02-02T07:28:01.243Z,98637.03
2023-02-02T07:30:29.932Z,98644.78
2023-02-02T07:32:58.441Z,98648.88
2023-02-02T07:35:25.765Z,98643.72
2023-02-02T07:37:53.635Z,98643.75
2023-02-02T07:40:23.484Z,98647.66
2023-02-02T07:42:50.721Z,98660.03
2023-02-02T07:45:35.844Z,98655.25
2023-02-02T07:48:04.769Z,98665.38
2023-02-02T07:50:32.543Z,98664.09
2023-02-02T07:53:00.631Z,98675.28
2023-02-02T07:55:27.846Z,98668.56
2023-02-02T07:57:58.831Z,98662.00
2023-02-02T08:00:26.342Z,98658.19
2023-02-02T08:02:56.177Z,98660.38
2023-02-02T08:05:24.766Z,98666.34
2023-02-02T08:07:51.842Z,98675.44
2023-02-02T08:10:18.910Z,98671.78
2023-02-02T08:12:45.825Z,98680.91
2023-02-02T08:15:12.759Z,98677.50
2023-02-02T08:17:39.746Z,98679.19
2023-02-02T08:20:07.729Z,98671.53
2023-02-02T08:22:36.166Z,98685.75
2023-02-02T08:25:03.143Z,98677.69
2023-02-02T08:27:30.095Z,98682.44
2023-02-02T08:29:57.072Z,98676.84
2023-02-02T08:32:23.992Z,98688.28
2023-02-02T08:34:54.086Z,98682.56
2023-02-02T08:37:21.033Z,98678.81
2023-02-02T08:39:49.435Z,98662.13
2023-02-02T08:42:16.369Z,98672.53
2023-02-02T08:46:00.373Z,98668.19
2023-02-02T08:47:30.618Z,98657.28
2023-02-02T08:49:58.038Z,98650.78
2023-02-02T08:52:25.926Z,98650.16
2023-02-02T08:54:54.347Z,98634.09
2023-02-02T08:57:21.296Z,98638.22
2023-02-02T08:59:48.231Z,98653.06
2023-02-02T09:02:15.239Z,98635.31
2023-02-02T09:04:45.347Z,98634.41
2023-02-02T09:07:12.421Z,98631.13
2023-02-02T09:09:39.348Z,98622.56
2023-02-02T09:12:10.878Z,98622.13
2023-02-02T09:14:38.188Z,98628.53
2023-02-02T09:17:05.104Z,98625.75
2023-02-02T09:19:32.129Z,98626.94
2023-02-02T09:21:59.727Z,98614.28
2023-02-02T09:24:26.717Z,98625.44
2023-02-02T09:26:53.670Z,98619.84
2023-02-02T09:29:22.206Z,98618.09
2023-02-02T09:31:49.296Z,98618.50
2023-02-02T09:34:16.546Z,98617.50
2023-02-02T09:36:44.469Z,98621.09
2023-02-02T09:39:12.977Z,98618.25
2023-02-02T09:41:55.952Z,98595.91
2023-02-02T09:44:35.673Z,98597.03
2023-02-02T09:47:12.484Z,98600.31
2023-02-02T09:49:48.022Z,98600.84
2023-02-02T09:52:18.755Z,98592.59
2023-02-02T09:54:48.500Z,98588.19
2023-02-02T09:57:20.369Z,98580.00
2023-02-02T09:59:51.160Z,98575.38
2023-02-02T10:02:22.166Z,98556.50
2023-02-02T10:04:52.453Z,98564.41
2023-02-02T10:07:23.982Z,98556.28
2023-02-02T10:09:58.995Z,98565.16
2023-02-02T10:12:33.851Z,98559.25
2023-02-02T10:15:13.172Z,98558.34
2023-02-02T10:17:46.976Z,98554.31
2023-02-02T10:20:34.170Z,98537.22
2023-02-02T10:23:21.518Z,98539.72
2023-02-02T10:25:56.517Z,98531.19
2023-02-02T10:28:41.218Z,98536.28
2023-02-02T10:31:19.417Z,98532.41
2023-02-02T10:33:56.087Z,98534.25
2023-02-02T10:36:33.957Z,98523.44
2023-02-02T10:39:09.750Z,98528.69
2023-02-02T10:41:45.557Z,98524.94
2023-02-02T10:44:24.325Z,98519.69
2023-02-02T10:46:55.757Z,98517.97
2023-02-02T10:49:28.771Z,98503.81
2023-02-02T10:51:59.556Z,98500.97
2023-02-02T10:54:56.376Z,98498.91
2023-02-02T10:57:51.022Z,98491.03
2023-02-02T11:00:25.315Z,98488.75
2023-02-02T11:02:54.484Z,98488.09
2023-02-02T11:05:41.665Z,98481.94
2023-02-02T11:08:14.783Z,98488.91
2023-02-02T11:10:43.321Z,98488.63
2023-02-02T11:13:15.846Z,98489.19
2023-02-02T11:15:42.894Z,98493.09
2023-02-02T11:18:29.027Z,98497.94
2023-02-02T11:20:57.302Z,98490.91
2023-02-02T11:23:27.795Z,98474.97
2023-02-02T11:26:00.783Z,98469.22
2023-02-02T11:28:34.099Z,98474.53
2023-02-02T11:31:01.979Z,98462.16
2023-02-02T11:33:33.520Z,98466.47
2023-02-02T11:36:01.860Z,98465.25
2023-02-02T11:38:29.093Z,98467.53
2023-02-02T11:41:00.996Z,98467.16
2023-02-02T11:43:30.351Z,98456.13
2023-02-02T11:46:03.066Z,98454.25
2023-02-02T11:48:34.961Z,98450.59
2023-02-02T11:51:03.023Z,98431.69
2023-02-02T11:53:33.080Z,98436.94
2023-02-02T11:56:02.528Z,98429.53
2023-02-02T11:58:42.258Z,98412.72
2023-02-02T12:01:24.742Z,98410.16
2023-02-02T12:03:54.754Z,98403.84
2023-02-02T12:06:24.059Z,98405.03
2023-02-02T12:08:56.786Z,98405.88
2023-02-02T12:11:39.361Z,98404.72
2023-02-02T12:14:21.171Z,98399.78
2023-02-02T12:17:04.327Z,98394.75
2023-02-02T12:20:05.078Z,98382.53
2023-02-02T12:22:45.710Z,98381.25
2023-02-02T12:25:33.699Z,98379.91
2023-02-02T12:28:06.290Z,98377.75
2023-02-02T12:30:40.819Z,98373.22
2023-02-02T12:33:21.080Z,98368.75
2023-02-02T12:36:18.287Z,98368.09
2023-02-02T12:39:03.374Z,98368.78
2023-02-02T12:41:42.478Z,98370.50
2023-02-02T12:44:15.480Z,98371.44
2023-02-02T12:46:55.043Z,98376.88
2023-02-02T12:49:35.553Z,98374.19
2023-02-02T12:52:30.981Z,98388.03
2023-02-02T12:55:28.846Z,98401.34
2023-02-02T12:58:07.380Z,98401.66
2023-02-02T13:00:53.392Z,98417.66
2023-02-02T13:03:43.013Z,98427.75
2023-02-02T13:06:24.942Z,98449.22
2023-02-02T13:08:58.565Z,98477.75
2023-02-02T13:11:35.509Z,98498.41
2023-02-02T13:14:09.642Z,98512.88
2023-02-02T13:16:38.216Z,98534.41
2023-02-02T13:19:11.141Z,98529.38
2023-02-02T13:21:39.565Z,98531.25
2023-02-02T13:24:14.319Z,98542.16
2023-02-02T13:26:44.478Z,98547.94
2023-02-02T13:29:22.414Z,98558.31
2023-02-02T13:31:56.093Z,98559.19
2023-02-02T13:34:27.756Z,98551.84
2023-02-02T13:36:59.130Z,98548.47
2023-02-02T13:39:34.033Z,98530.25
2023-02-02T13:42:02.941Z,98524.16
2023-02-02T13:44:37.212Z,98535.56
2023-02-02T13:47:08.866Z,98555.28
2023-02-02T13:49:41.024Z,98548.22
2023-02-02T13:52:44.330Z,98503.03
2023-02-02T13:55:47.531Z,98499.75
2023-02-02T13:58:48.449Z,98505.63
2023-02-02T14:01:15.846Z,98533.53
2023-02-02T14:03:44.833Z,98512.09
2023-02-02T14:06:15.241Z,98460.84
2023-02-02T14:08:46.767Z,98447.97
2023-02-02T14:11:21.919Z,98453.78
2023-02-02T14:14:11.147Z,98484.63
2023-02-02T14:16:50.152Z,98478.31
2023-02-02T14:19:42.063Z,98482.88
2023-02-02T14:22:20.739Z,98486.94
2023-02-02T14:24:50.258Z,98504.59
2023-02-02T14:30:38.784Z,98509.47
2023-02-02T14:33:40.065Z,98500.78
2023-02-02T14:36:13.983Z,98516.63
2023-02-02T14:39:09.971Z,98512.03
2023-02-02T14:42:24.036Z,98519.22
2023-02-02T14:45:22.474Z,98517.38
2023-02-02T14:47:53.761Z,98517.75
2023-02-02T14:50:32.311Z,98526.97
2023-02-02T14:53:03.021Z,98521.06
2023-02-02T14:55:31.098Z,98535.19
2023-02-02T14:58:01.079Z,98532.38
2023-02-02T15:00:31.218Z,98542.56
2023-02-02T15:03:34.160Z,98550.03
2023-02-02T15:06:13.157Z,98556.72
2023-02-02T15:08:40.304Z,98563.41
2023-02-02T15:11:28.735Z,98571.22
2023-02-02T15:14:13.533Z,98569.63
2023-02-02T15:16:42.646Z,98565.16
2023-02-02T15:19:32.527Z,98557.22
2023-02-02T15:22:06.904Z,98569.19
2023-02-02T15:24:37.650Z,98578.41
2023-02-02T15:27:08.773Z,98582.09
2023-02-02T15:29:42.717Z,98585.59
2023-02-02T15:32:16.392Z,98599.59
2023-02-02T15:34:48.593Z,98595.19
2023-02-02T15:37:20.579Z,98599.06
2023-02-02T15:39:49.912Z,98601.31
2023-02-02T15:42:49.216Z,98599.72
2023-02-02T15:45:35.501Z,98597.69
2023-02-02T15:48:09.003Z,98605.50
2023-02-02T15:50:39.556Z,98619.06
2023-02-02T15:53:06.730Z,98620.69
2023-02-02T15:55:35.733Z,98624.53
2023-02-02T15:58:04.005Z,98621.19
2023-02-02T16:00:33.569Z,98621.38
2023-02-02T16:03:04.931Z,98632.06
2023-02-02T16:05:47.371Z,98645.44
2023-02-02T16:08:18.100Z,98641.94
2023-02-02T16:10:46.658Z,98653.56
2023-02-02T16:13:26.444Z,98652.78
2023-02-02T16:15:59.023Z,98656.00
2023-02-02T16:18:26.732Z,98665.69
2023-02-02T16:20:57.635Z,98670.94
2023-02-02T16:23:29.581Z,98664.28
2023-02-02T16:25:59.441Z,98667.28
2023-02-02T16:28:26.957Z,98658.69
2023-02-02T16:30:54.325Z,98662.66
2023-02-02T16:33:35.543Z,98666.50
2023-02-02T16:36:23.982Z,98663.31
2023-02-02T16:38:52.963Z,98675.84
2023-02-02T16:41:28.913Z,98684.28
2023-02-02T16:43:56.119Z,98678.13
2023-02-02T16:46:42.788Z,98680.81
2023-02-02T16:49:16.006Z,98684.81
2023-02-02T16:51:45.456Z,98693.22
2023-02-02T16:54:19.535Z,98686.56
2023-02-02T16:56:48.958Z,98694.34
2023-02-02T16:59:22.038Z,98689.31
2023-02-02T17:01:52.322Z,98702.50
2023-02-02T17:04:23.402Z,98693.63
2023-02-02T17:06:53.542Z,98690.75
2023-02-02T17:09:35.204Z,98694.75
2023-02-02T17:12:09.371Z,98699.03
2023-02-02T17:14:52.115Z,98700.91
2023-02-02T17:17:19.256Z,98695.88
2023-02-02T17:19:47.867Z,98701.44
2023-02-02T17:22:18.178Z,98709.22
2023-02-02T17:24:49.755Z,98714.59
2023-02-02T17:27:18.883Z,98719.56
2023-02-02T17:29:46.300Z,98725.75
2023-02-02T17:32:14.328Z,98727.66
2023-02-02T17:34:41.337Z,98730.84
2023-02-02T17:37:08.372Z,98724.50
2023-02-02T17:39:37.032Z,98731.31
2023-02-02T17:42:04.365Z,98713.38
2023-02-02T17:44:31.481Z,98712.88
2023-02-02T17:46:58.392Z,98719.72
2023-02-02T17:49:25.342Z,98721.63
2023-02-02T17:51:52.281Z,98711.00
2023-02-02T17:54:19.308Z,98723.38
2023-02-02T17:56:47.692Z,98714.03
2023-02-02T17:59:14.589Z,98728.16
2023-02-02T18:01:41.956Z,98716.88
2023-02-02T18:04:12.312Z,98707.81
2023-02-02T18:06:40.092Z,98707.34
2023-02-02T18:09:07.471Z,98705.44
2023-02-02T18:11:34.455Z,98708.78
2023-02-02T18:14:04.315Z,98703.22
2023-02-02T18:16:31.991Z,98704.31
2023-02-02T18:18:58.945Z,98709.56
2023-02-02T18:21:29.775Z,98709.72
2023-02-02T18:23:57.021Z,98699.09
2023-02-02T18:26:24.032Z,98699.09
2023-02-02T18:28:51.998Z,98702.56
2023-02-02T18:31:23.835Z,98705.44
2023-02-02T18:33:51.114Z,98700.03
2023-02-02T18:36:20.744Z,98690.53
2023-02-02T18:38:49.261Z,98691.16
2023-02-02T18:41:17.572Z,98706.84
2023-02-02T18:43:45.698Z,98714.66
2023-02-02T18:46:15.074Z,98716.22
2023-02-02T18:48:43.700Z,98717.50
2023-02-02T18:51:16.602Z,98709.22
2023-02-02T18:53:44.274Z,98704.47
2023-02-02T18:56:12.866Z,98711.16
2023-02-02T18:58:40.677Z,98703.19
2023-02-02T19:01:08.535Z,98711.75
2023-02-02T19:03:36.752Z,98715.41
2023-02-02T19:06:25.817Z,98717.16
2023-02-02T19:08:53.049Z,98708.88
2023-02-02T19:11:22.209Z,98723.19
2023-02-02T19:13:49.658Z,98716.34
2023-02-02T19:16:22.847Z,98720.16
2023-02-02T19:18:50.243Z,98719.34
2023-02-02T19:21:18.542Z,98728.72
2023-02-02T19:23:46.226Z,98728.72
2023-02-02T19:26:21.896Z,98739.00
2023-02-02T19:28:49.073Z,98739.34
2023-02-02T19:31:16.359Z,98746.00
2023-02-02T19:33:46.291Z,98745.66
2023-02-02T19:36:20.181Z,98746.94
2023-02-02T19:38:49.025Z,98751.03
2023-02-02T19:41:20.101Z,98737.91
2023-02-02T19:43:47.946Z,98746.44
2023-02-02T19:46:18.775Z,98729.31
2023-02-02T19:48:51.728Z,98734.53
2023-02-02T19:51:39.724Z,98729.78
2023-02-02T19:54:26.955Z,98734.34
2023-02-02T19:56:57.497Z,98730.38
2023-02-02T19:59:26.666Z,98729.41
2023-02-02T20:01:55.266Z,98733.19
2023-02-02T20:04:22.575Z,98735.06
2023-02-02T20:06:59.196Z,98736.19
2023-02-02T20:09:34.218Z,98737.13
2023-02-02T20:12:01.269Z,98756.00
2023-02-02T20:14:32.146Z,98764.38
2023-02-02T20:17:02.589Z,98769.44
2023-02-02T20:19:33.602Z,98767.72
2023-02-02T20:22:03.124Z,98769.44
2023-02-02T20:24:36.307Z,98768.66
2023-02-02T20:27:13.386Z,98752.50
2023-02-02T20:29:42.541Z,98764.22
2023-02-02T20:32:21.151Z,98757.56
2023-02-02T20:34:49.091Z,98755.34
2023-02-02T20:37:22.922Z,98762.94
2023-02-02T20:39:54.624Z,98772.44
2023-02-02T20:42:22.078Z,98769.25
2023-02-02T20:44:49.167Z,98771.28
2023-02-02T20:47:16.185Z,98778.28
2023-02-02T20:49:44.478Z,98775.09
2023-02-02T20:52:18.231Z,98778.72
2023-02-02T20:54:46.545Z,98781.53
2023-02-02T20:57:13.789Z,98798.66
2023-02-02T20:59:40.761Z,98798.03
2023-02-02T21:02:08.211Z,98800.56
2023-02-02T21:04:35.172Z,98792.06
2023-02-02T21:07:02.147Z,98800.44
2023-02-02T21:09:29.063Z,98805.50
2023-02-02T21:11:57.366Z,98806.16
2023-02-02T21:14:24.259Z,98809.78
2023-02-02T21:16:55.349Z,98814.88
2023-02-02T21:19:26.629Z,98813.91
2023-02-02T21:21:53.690Z,98810.88
2023-02-02T21:24:20.592Z,98814.78
2023-02-02T21:26:52.203Z,98805.47
2023-02-02T21:29:20.867Z,98801.13
2023-02-02T21:31:48.121Z,98800.78
2023-02-02T21:34:17.340Z,98803.31
2023-02-02T21:36:46.343Z,98806.78
2023-02-02T21:39:21.595Z,98811.84
2023-02-02T21:41:49.368Z,98809.97
2023-02-02T21:44:18.038Z,98805.19
2023-02-02T21:46:48.627Z,98817.88
2023-02-02T21:49:22.723Z,98823.31
2023-02-02T21:51:50.191Z,98825.84
2023-02-02T21:54:22.697Z,98822.22
2023-02-02T21:56:50.720Z,98826.97
2023-02-02T21:59:19.536Z,98825.88
2023-02-02T22:01:49.473Z,98823.19
2023-02-02T22:04:20.055Z,98815.75
2023-02-02T22:06:48.756Z,98809.88
2023-02-02T22:09:19.176Z,98809.69
2023-02-02T22:11:50.001Z,98795.44
2023-02-02T22:14:25.103Z,98797.63
2023-02-02T22:16:57.035Z,98800.19
2023-02-02T22:19:26.752Z,98799.41
2023-02-02T22:21:57.936Z,98804.03
2023-02-02T22:24:25.405Z,98801.19
2023-02-02T22:26:52.419Z,98801.03
2023-02-02T22:29:21.377Z,98801.81
2023-02-02T22:31:48.550Z,98795.19
2023-02-02T22:34:16.870Z,98797.72
2023-02-02T22:36:43.835Z,98800.41
2023-02-02T22:39:10.941Z,98794.66
2023-02-02T22:41:37.885Z,98801.34
2023-02-02T22:44:06.008Z,98785.47
2023-02-02T22:46:33.035Z,98793.38
2023-02-02T22:49:00.000Z,98789.13
2023-02-02T22:51:28.369Z,98798.16
2023-02-02T22:53:55.345Z,98794.66
2023-02-02T22:56:26.310Z,98797.84
2023-02-02T22:58:53.241Z,98798.66
2023-02-02T23:01:20.325Z,98795.94
2023-02-02T23:03:48.659Z,98794.88
2023-02-02T23:06:15.727Z,98798.34
2023-02-02T23:08:44.371Z,98804.72
2023-02-02T23:11:11.376Z,98801.56
2023-02-02T23:13:38.345Z,98790.50
2023-02-02T23:16:06.112Z,98803.19
2023-02-02T23:18:33.230Z,98800.78
2023-02-02T23:21:00.478Z,98796.47
2023-02-02T23:23:27.410Z,98795.94
2023-02-02T23:25:55.900Z,98792.63
2023-02-02T23:28:22.907Z,98782.78
2023-02-02T23:30:51.030Z,98785.78
2023-02-02T23:33:17.988Z,98792.38
2023-02-02T23:35:45.189Z,98790.00
2023-02-02T23:38:13.463Z,98800.13
2023-02-02T23:40:40.373Z,98798.56
2023-02-02T23:43:08.844Z,98803.63
2023-02-02T23:45:36.490Z,98811.84
2023-02-02T23:48:03.494Z,98809.97
2023-02-02T23:50:30.539Z,98805.88
2023-02-02T23:52:57.986Z,98809.97
2023-02-02T23:55:24.951Z,98812.38
2023-02-02T23:57:52.022Z,98821.06
